createdAt,value
2023-04-15T00:02:07.026Z,12.17
2023-04-15T00:14:07.020Z,12.16
2023-04-15T00:26:07.044Z,12.15
2023-04-15T00:38:06.975Z,12.13
2023-04-15T00:50:06.972Z,12.12
2023-04-15T01:02:07.151Z,12.11
2023-04-15T01:14:07.066Z,12.10
2023-04-15T01:26:06.985Z,12.09
2023-04-15T01:38:06.989Z,12.08
2023-04-15T01:50:07.086Z,12.07
2023-04-15T02:02:07.101Z,12.06
2023-04-15T02:14:07.023Z,12.04
2023-04-15T02:26:07.111Z,12.02
2023-04-15T02:38:07.172Z,12.02
2023-04-15T02:50:07.068Z,12.01
2023-04-15T03:02:07.105Z,12.00
2023-04-15T03:14:07.112Z,11.99
2023-04-15T03:26:07.054Z,11.98
2023-04-15T03:38:06.982Z,11.97
2023-04-15T03:50:06.981Z,11.95
2023-04-15T04:02:07.120Z,11.95
2023-04-15T04:14:06.992Z,11.93
2023-04-15T04:26:07.076Z,11.92
2023-04-15T04:38:06.972Z,11.91
2023-04-15T04:50:07.005Z,11.90
2023-04-15T05:02:07.087Z,11.90
2023-04-15T05:14:07.060Z,11.89
2023-04-15T05:26:06.994Z,11.90
2023-04-15T05:38:07.099Z,11.89
2023-04-15T05:50:06.999Z,11.90
2023-04-15T06:02:07.143Z,11.93
2023-04-15T06:14:07.099Z,11.97
2023-04-15T06:26:06.981Z,12.03
2023-04-15T06:38:06.995Z,12.13
2023-04-15T06:50:06.997Z,12.21
2023-04-15T07:02:07.034Z,12.20
2023-04-15T07:14:06.982Z,12.37
2023-04-15T07:26:07.055Z,12.38
2023-04-15T07:38:06.979Z,12.46
2023-04-15T07:50:07.098Z,12.52
2023-04-15T08:02:11.122Z,12.60
2023-04-15T08:14:07.054Z,12.62
2023-04-15T08:26:07.056Z,12.62
2023-04-15T08:38:06.986Z,12.62
2023-04-15T08:50:07.045Z,12.62
2023-04-15T09:02:07.009Z,12.62
2023-04-15T09:14:07.045Z,12.62
2023-04-15T09:26:07.001Z,12.62
2023-04-15T09:38:06.988Z,12.62
2023-04-15T09:50:07.046Z,12.62
2023-04-15T10:02:07.100Z,12.62
2023-04-15T10:14:07.036Z,12.62
2023-04-15T10:26:07.061Z,12.62
2023-04-15T10:38:06.985Z,12.62
2023-04-15T10:50:07.046Z,12.62
2023-04-15T11:02:16.334Z,12.61
2023-04-15T11:14:07.076Z,12.61
2023-04-15T11:26:07.077Z,12.60
2023-04-15T11:38:06.978Z,12.60
2023-04-15T11:50:06.999Z,12.61
2023-04-15T12:02:07.073Z,12.60
2023-04-15T12:14:07.066Z,12.60
2023-04-15T12:26:06.994Z,12.59
2023-04-15T12:38:06.987Z,12.59
2023-04-15T12:50:06.974Z,12.61
2023-04-15T13:02:07.034Z,12.60
2023-04-15T13:14:07.262Z,12.60
2023-04-15T13:26:06.983Z,12.60
2023-04-15T13:38:07.037Z,12.60
2023-04-15T13:50:07.097Z,12.60
2023-04-15T14:02:07.165Z,12.59
2023-04-15T14:14:07.117Z,12.61
2023-04-15T14:26:06.993Z,12.58
2023-04-15T14:38:07.011Z,12.60
2023-04-15T14:50:07.029Z,12.60
2023-04-15T15:02:07.031Z,12.61
2023-04-15T15:14:07.017Z,12.60
2023-04-15T15:26:10.779Z,12.61
2023-04-15T15:38:06.990Z,12.59
2023-04-15T15:50:07.106Z,12.59
2023-04-15T16:02:07.600Z,12.59
2023-04-15T16:14:06.980Z,12.58
2023-04-15T16:26:07.062Z,12.56
2023-04-15T16:38:07.004Z,12.54
2023-04-15T16:50:06.990Z,12.54
2023-04-15T17:02:06.994Z,12.52
2023-04-15T17:14:07.643Z,12.51
2023-04-15T17:26:07.006Z,12.49
2023-04-15T17:38:07.067Z,12.49
2023-04-15T17:50:07.409Z,12.46
2023-04-15T18:02:07.020Z,12.46
2023-04-15T18:14:07.331Z,12.44
2023-04-15T18:26:06.989Z,12.43
2023-04-15T18:38:07.095Z,12.41
2023-04-15T18:50:06.985Z,12.41
2023-04-15T19:02:07.043Z,12.38
2023-04-15T19:14:06.996Z,12.37
2023-04-15T19:26:14.124Z,12.35
2023-04-15T19:38:07.025Z,12.35
2023-04-15T19:50:06.988Z,12.34
2023-04-15T20:02:07.138Z,12.32
2023-04-15T20:14:06.996Z,12.32
2023-04-15T20:26:07.042Z,12.31
2023-04-15T20:38:07.098Z,12.29
2023-04-15T20:50:07.002Z,12.28
2023-04-15T21:02:07.087Z,12.27
2023-04-15T21:14:07.097Z,12.25
2023-04-15T21:26:07.003Z,12.23
2023-04-15T21:38:07.087Z,12.23
2023-04-15T21:50:07.087Z,12.21
2023-04-15T22:02:07.092Z,12.21
2023-04-15T22:14:07.088Z,12.19
2023-04-15T22:26:06.981Z,12.19
2023-04-15T22:38:07.006Z,12.16
2023-04-15T22:50:07.046Z,12.15
2023-04-15T23:02:07.111Z,12.15
2023-04-15T23:14:06.985Z,12.15
2023-04-15T23:26:06.991Z,12.12
2023-04-15T23:38:07.070Z,12.11
2023-04-15T23:50:06.984Z,12.10
